Time;durP1;ratioP1;P1;durP2;ratioP2;P2;SDS_P1;SDS_P2;PMS_P1;PMS_P2;Temp;Humidity;BMP_temperature;BMP_pressure;BME280_temperature;BME280_humidity;BME280_pressure;Samples;Min_cycle;Max_cycle;Signal;HPM_P1;HPM_P2
2022/07/12 00:00:54;;;;;;;5.00;1.80;;;;;;;;;;4807316;29;20389;-62
2022/07/12 00:03:20;;;;;;;1.77;1.65;;;;;;;;;;4792920;29;20147;-62
2022/07/12 00:05:46;;;;;;;2.35;2.00;;;;;;;;;;4807142;29;20501;-64
2022/07/12 00:08:11;;;;;;;2.38;2.03;;;;;;;;;;4804695;29;20579;-64
2022/07/12 00:10:36;;;;;;;3.13;1.90;;;;;;;;;;4807462;29;20156;-64
2022/07/12 00:13:03;;;;;;;3.83;2.30;;;;;;;;;;4806636;29;20339;-63
2022/07/12 00:15:29;;;;;;;2.55;2.25;;;;;;;;;;4788933;29;20030;-63
2022/07/12 00:17:54;;;;;;;2.28;2.08;;;;;;;;;;4807809;29;20571;-63
2022/07/12 00:20:20;;;;;;;3.13;2.42;;;;;;;;;;4789385;29;20065;-61
2022/07/12 00:22:46;;;;;;;3.40;2.80;;;;;;;;;;4808900;29;20034;-63
2022/07/12 00:25:11;;;;;;;3.35;2.90;;;;;;;;;;4812248;29;20111;-63
2022/07/12 00:27:37;;;;;;;3.95;2.95;;;;;;;;;;4808151;29;20085;-63
2022/07/12 00:30:04;;;;;;;4.10;2.90;;;;;;;;;;4809084;29;20403;-62
2022/07/12 00:32:29;;;;;;;3.47;3.03;;;;;;;;;;4808106;29;20037;-62
2022/07/12 00:34:55;;;;;;;3.83;3.10;;;;;;;;;;4803472;29;20103;-62
2022/07/12 00:37:20;;;;;;;4.55;3.40;;;;;;;;;;4807942;29;20042;-63
2022/07/12 00:39:46;;;;;;;4.28;3.65;;;;;;;;;;4813114;29;20165;-62
2022/07/12 00:42:11;;;;;;;4.18;3.40;;;;;;;;;;4809174;29;20092;-61
2022/07/12 00:44:36;;;;;;;4.30;3.53;;;;;;;;;;4808799;29;20038;-63
2022/07/12 00:47:02;;;;;;;4.05;3.45;;;;;;;;;;4809089;29;20030;-64
2022/07/12 00:49:29;;;;;;;4.70;3.90;;;;;;;;;;4808492;29;20537;-63
2022/07/12 00:51:54;;;;;;;3.95;3.47;;;;;;;;;;4809972;29;20035;-64
2022/07/12 00:54:20;;;;;;;5.40;3.72;;;;;;;;;;4803218;29;20065;-63
2022/07/12 00:56:46;;;;;;;4.55;4.00;;;;;;;;;;4805893;29;20042;-64
2022/07/12 00:59:11;;;;;;;4.32;3.75;;;;;;;;;;4807828;29;20134;-63
2022/07/12 01:01:38;;;;;;;4.15;3.67;;;;;;;;;;4806587;29;20565;-63
2022/07/12 01:04:04;;;;;;;6.40;3.72;;;;;;;;;;4806110;29;20038;-62
2022/07/12 01:06:31;;;;;;;4.45;3.67;;;;;;;;;;4806282;29;20407;-61
2022/07/12 01:08:58;;;;;;;4.40;4.00;;;;;;;;;;4807493;29;20091;-61
2022/07/12 01:11:25;;;;;;;4.43;4.00;;;;;;;;;;4805188;29;20090;-62
2022/07/12 01:13:52;;;;;;;5.35;3.97;;;;;;;;;;4805089;29;20594;-61
2022/07/12 01:16:19;;;;;;;6.80;3.95;;;;;;;;;;4808240;29;20480;-64
2022/07/12 01:18:45;;;;;;;6.65;4.32;;;;;;;;;;4959908;23;20056;-62
2022/07/12 01:21:15;;;;;;;4.85;4.30;;;;;;;;;;4807791;29;20828;-62
2022/07/12 01:23:41;;;;;;;6.72;4.85;;;;;;;;;;4804595;29;20133;-61
2022/07/12 01:26:07;;;;;;;5.13;4.03;;;;;;;;;;4807737;29;20046;-61
2022/07/12 01:28:32;;;;;;;6.30;4.40;;;;;;;;;;4799282;29;20065;-61
2022/07/12 01:30:58;;;;;;;6.65;4.40;;;;;;;;;;4808989;29;20062;-63
2022/07/12 01:33:26;;;;;;;4.90;4.43;;;;;;;;;;4812480;29;20034;-62
2022/07/12 01:35:51;;;;;;;5.68;4.25;;;;;;;;;;4793523;29;20039;-62
2022/07/12 01:38:17;;;;;;;6.40;4.50;;;;;;;;;;4813600;29;20047;-62
2022/07/12 01:40:42;;;;;;;4.90;4.22;;;;;;;;;;4811980;29;20051;-65
2022/07/12 01:43:08;;;;;;;4.78;4.30;;;;;;;;;;4805344;29;20039;-61
2022/07/12 01:45:33;;;;;;;6.10;4.63;;;;;;;;;;4813464;29;20042;-62
2022/07/12 01:47:58;;;;;;;4.90;4.38;;;;;;;;;;4793816;29;20460;-63
2022/07/12 01:50:24;;;;;;;6.20;4.40;;;;;;;;;;4812728;29;20085;-62
2022/07/12 01:52:51;;;;;;;6.50;4.35;;;;;;;;;;4805095;29;20107;-61
2022/07/12 01:55:17;;;;;;;4.45;4.05;;;;;;;;;;4813267;29;20114;-61
2022/07/12 01:57:46;;;;;;;5.35;4.53;;;;;;;;;;4813400;29;20536;-62
2022/07/12 02:00:12;;;;;;;6.00;4.10;;;;;;;;;;4817094;29;20050;-63
2022/07/12 02:02:38;;;;;;;5.65;4.18;;;;;;;;;;4801887;29;20361;-62
2022/07/12 02:05:04;;;;;;;5.18;3.97;;;;;;;;;;4812968;29;20364;-62
2022/07/12 02:07:31;;;;;;;5.18;4.13;;;;;;;;;;4813246;29;20046;-62
2022/07/12 02:09:57;;;;;;;4.95;4.45;;;;;;;;;;4815017;29;20046;-61
2022/07/12 02:12:23;;;;;;;5.13;3.90;;;;;;;;;;4798595;29;20377;-61
2022/07/12 02:14:49;;;;;;;6.13;4.40;;;;;;;;;;4816611;29;20060;-62
2022/07/12 02:17:14;;;;;;;6.20;4.50;;;;;;;;;;4817024;29;20049;-61
2022/07/12 02:19:40;;;;;;;4.50;4.05;;;;;;;;;;4810252;29;20512;-61
2022/07/12 02:22:05;;;;;;;4.93;3.95;;;;;;;;;;4812716;29;20199;-61
2022/07/12 02:24:30;;;;;;;4.50;4.10;;;;;;;;;;4810367;29;20478;-62
2022/07/12 02:26:56;;;;;;;5.03;3.88;;;;;;;;;;4810766;29;20046;-61
2022/07/12 02:29:21;;;;;;;4.88;4.00;;;;;;;;;;4819098;29;20030;-64
2022/07/12 02:31:47;;;;;;;4.43;4.03;;;;;;;;;;4813270;29;20062;-61
2022/07/12 02:34:12;;;;;;;5.15;3.97;;;;;;;;;;4813867;29;20059;-61
2022/07/12 02:36:38;;;;;;;4.38;3.80;;;;;;;;;;4810265;29;20145;-61
2022/07/12 02:39:04;;;;;;;4.45;4.03;;;;;;;;;;4811640;29;20059;-56
2022/07/12 02:41:31;;;;;;;4.32;3.88;;;;;;;;;;4810851;29;20030;-52
2022/07/12 02:43:57;;;;;;;4.00;3.53;;;;;;;;;;4814831;29;20050;-63
2022/07/12 02:46:22;;;;;;;3.75;3.42;;;;;;;;;;4812006;29;20050;-61
2022/07/12 02:48:47;;;;;;;4.40;3.60;;;;;;;;;;4809742;29;20443;-60
2022/07/12 02:51:13;;;;;;;3.85;3.20;;;;;;;;;;4811378;29;20059;-61
2022/07/12 02:53:38;;;;;;;5.03;3.28;;;;;;;;;;4815016;29;20108;-62
2022/07/12 02:56:05;;;;;;;3.35;3.05;;;;;;;;;;4809940;29;20045;-60
2022/07/12 02:58:30;;;;;;;3.85;3.38;;;;;;;;;;4815262;29;20213;-61
2022/07/12 03:00:55;;;;;;;3.55;3.25;;;;;;;;;;4813414;29;20557;-60
2022/07/12 03:03:21;;;;;;;4.40;3.15;;;;;;;;;;4807802;29;20039;-61
2022/07/12 03:05:47;;;;;;;3.70;2.83;;;;;;;;;;4811077;29;20054;-60
2022/07/12 03:08:12;;;;;;;3.33;3.03;;;;;;;;;;4812988;29;20038;-60
2022/07/12 03:10:39;;;;;;;5.60;2.78;;;;;;;;;;4812559;29;20066;-60
2022/07/12 03:13:05;;;;;;;4.40;3.35;;;;;;;;;;4809098;29;20140;-60
2022/07/12 03:15:31;;;;;;;4.70;3.50;;;;;;;;;;4798298;29;20061;-61
2022/07/12 03:17:57;;;;;;;4.97;3.40;;;;;;;;;;4813077;29;20050;-61
2022/07/12 03:20:23;;;;;;;5.53;3.40;;;;;;;;;;4812116;29;20100;-61
2022/07/12 03:22:51;;;;;;;5.70;3.10;;;;;;;;;;4808812;29;20081;-61
2022/07/12 03:25:17;;;;;;;4.22;3.70;;;;;;;;;;4809638;29;20123;-61
2022/07/12 03:27:42;;;;;;;6.88;3.25;;;;;;;;;;4810393;29;20061;-61
2022/07/12 03:30:08;;;;;;;3.40;3.10;;;;;;;;;;4810314;29;20086;-61
2022/07/12 03:32:34;;;;;;;4.32;3.10;;;;;;;;;;4815576;29;20041;-61
2022/07/12 03:35:00;;;;;;;4.30;3.13;;;;;;;;;;4817151;29;20026;-61
2022/07/12 03:37:26;;;;;;;4.05;3.47;;;;;;;;;;4814008;29;20094;-61
2022/07/12 03:39:53;;;;;;;3.85;3.10;;;;;;;;;;4816475;29;20054;-61
2022/07/12 03:42:19;;;;;;;3.63;3.33;;;;;;;;;;4809605;29;20217;-61
2022/07/12 03:44:44;;;;;;;4.75;3.22;;;;;;;;;;4817425;29;20568;-61
2022/07/12 03:47:09;;;;;;;3.80;3.45;;;;;;;;;;4814441;29;20087;-61
2022/07/12 03:49:35;;;;;;;4.35;3.50;;;;;;;;;;4816676;29;20058;-61
2022/07/12 03:52:02;;;;;;;5.03;3.30;;;;;;;;;;4816326;29;20131;-61
2022/07/12 03:54:28;;;;;;;4.75;3.30;;;;;;;;;;4810144;29;20092;-61
2022/07/12 03:59:37;;;;;;;5.10;4.40;;;;;;;;;;4811845;29;20049;-64
2022/07/12 04:02:03;;;;;;;4.43;3.47;;;;;;;;;;4815787;29;20038;-61
2022/07/12 04:04:28;;;;;;;4.75;3.65;;;;;;;;;;4797843;29;20510;-61
2022/07/12 04:06:53;;;;;;;4.25;3.65;;;;;;;;;;4811477;29;20530;-61
2022/07/12 04:09:20;;;;;;;5.32;4.28;;;;;;;;;;4815529;29;20153;-61
2022/07/12 04:11:46;;;;;;;7.40;4.32;;;;;;;;;;4814416;29;20071;-61
2022/07/12 04:14:11;;;;;;;5.00;3.80;;;;;;;;;;4816323;29;20114;-62
2022/07/12 04:16:36;;;;;;;5.05;3.70;;;;;;;;;;4814321;29;20058;-61
2022/07/12 04:19:02;;;;;;;6.60;4.82;;;;;;;;;;4813865;29;20062;-62
2022/07/12 04:21:28;;;;;;;7.90;4.90;;;;;;;;;;4813978;29;20054;-61
2022/07/12 04:23:53;;;;;;;6.30;4.28;;;;;;;;;;4811858;29;20070;-62
2022/07/12 04:26:20;;;;;;;5.40;3.90;;;;;;;;;;4811191;29;20038;-61
2022/07/12 04:28:45;;;;;;;4.80;3.28;;;;;;;;;;4815071;29;20042;-61
2022/07/12 04:31:11;;;;;;;5.80;3.67;;;;;;;;;;4819026;29;20062;-61
2022/07/12 04:33:36;;;;;;;5.55;3.88;;;;;;;;;;4813317;29;20081;-61
2022/07/12 04:36:01;;;;;;;4.00;3.60;;;;;;;;;;4812182;29;20054;-65
2022/07/12 04:38:27;;;;;;;12.27;4.55;;;;;;;;;;4811976;29;20068;-64
2022/07/12 04:40:52;;;;;;;5.35;3.97;;;;;;;;;;4814600;29;20049;-60
2022/07/12 04:43:18;;;;;;;5.63;3.80;;;;;;;;;;4815632;29;20049;-61
2022/07/12 04:45:44;;;;;;;4.93;4.05;;;;;;;;;;4813809;29;20054;-63
2022/07/12 04:48:13;;;;;;;6.32;3.88;;;;;;;;;;4810064;29;20042;-62
2022/07/12 04:50:39;;;;;;;5.38;3.72;;;;;;;;;;4815298;29;20108;-61
2022/07/12 04:53:05;;;;;;;4.05;3.35;;;;;;;;;;4817825;29;20393;-61
2022/07/12 04:55:30;;;;;;;4.50;3.35;;;;;;;;;;4816568;29;20073;-61
2022/07/12 04:57:55;;;;;;;5.50;3.63;;;;;;;;;;4813358;29;20407;-62
2022/07/12 05:00:21;;;;;;;5.40;3.70;;;;;;;;;;4817907;29;20149;-62
2022/07/12 05:02:47;;;;;;;4.82;3.25;;;;;;;;;;4815597;29;20172;-62
2022/07/12 05:05:14;;;;;;;7.38;3.55;;;;;;;;;;4811685;29;20150;-62
2022/07/12 05:07:40;;;;;;;5.00;3.08;;;;;;;;;;4812573;29;20562;-63
2022/07/12 05:10:05;;;;;;;3.63;3.00;;;;;;;;;;4816075;29;20066;-62
2022/07/12 05:12:30;;;;;;;5.90;3.00;;;;;;;;;;4813554;29;20160;-62
2022/07/12 05:14:56;;;;;;;3.22;2.92;;;;;;;;;;4798321;29;20102;-60
2022/07/12 05:17:21;;;;;;;3.78;3.03;;;;;;;;;;4821663;29;20038;-62
2022/07/12 05:19:46;;;;;;;4.50;2.83;;;;;;;;;;4816718;29;20050;-60
2022/07/12 05:22:12;;;;;;;5.18;3.72;;;;;;;;;;4815438;29;20050;-60
2022/07/12 05:24:37;;;;;;;4.57;2.92;;;;;;;;;;4817022;29;20082;-62
2022/07/12 05:27:04;;;;;;;5.15;3.00;;;;;;;;;;4814103;29;20584;-60
2022/07/12 05:29:29;;;;;;;3.88;3.05;;;;;;;;;;4817326;29;20038;-60
2022/07/12 05:31:56;;;;;;;4.28;2.65;;;;;;;;;;4808749;29;20061;-60
2022/07/12 05:34:21;;;;;;;6.53;2.60;;;;;;;;;;4818382;29;20047;-60
